createdAt,value
2018-06-24T00:05:29.385Z,2.90
2018-06-24T00:08:00.411Z,2.20
2018-06-24T00:22:42.248Z,3.57
2018-06-24T00:25:11.628Z,4.67
2018-06-24T00:27:41.380Z,2.77
2018-06-24T00:39:22.268Z,2.13
2018-06-24T00:41:56.459Z,1.97
2018-06-24T00:44:26.863Z,2.40
2018-06-24T00:59:11.240Z,2.40
2018-06-24T01:01:45.761Z,2.27
2018-06-24T01:16:35.717Z,12.00
2018-06-24T01:19:08.768Z,7.87
2018-06-24T01:33:52.099Z,2.47
2018-06-24T01:36:26.848Z,2.47
2018-06-24T01:54:02.203Z,3.37
2018-06-24T01:56:31.446Z,2.93
2018-06-24T02:11:15.079Z,2.60
2018-06-24T02:13:44.362Z,3.30
2018-06-24T02:16:16.820Z,3.00
2018-06-24T02:28:17.510Z,7.73
2018-06-24T02:30:47.987Z,7.13
2018-06-24T02:33:17.520Z,4.60
2018-06-24T02:47:59.241Z,7.87
2018-06-24T02:50:30.157Z,5.40
2018-06-24T02:52:59.669Z,3.00
2018-06-24T03:04:38.058Z,4.13
2018-06-24T03:07:07.720Z,7.23
2018-06-24T03:09:37.266Z,6.57
2018-06-24T03:21:14.920Z,2.50
2018-06-24T03:23:46.398Z,2.60
2018-06-24T03:26:15.712Z,2.80
2018-06-24T03:40:55.601Z,2.90
2018-06-24T03:43:25.061Z,3.33
2018-06-24T03:58:04.451Z,3.67
2018-06-24T04:00:33.847Z,3.60
2018-06-24T04:14:58.809Z,5.13
2018-06-24T04:17:28.440Z,3.77
2018-06-24T04:19:58.195Z,3.50
2018-06-24T04:31:37.736Z,4.07
2018-06-24T04:34:07.041Z,4.10
2018-06-24T04:36:36.275Z,4.20
2018-06-24T04:48:13.973Z,8.90
2018-06-24T04:50:43.063Z,6.90
2018-06-24T04:53:12.159Z,4.53
2018-06-24T05:04:50.759Z,4.37
2018-06-24T05:07:23.362Z,4.70
2018-06-24T05:09:53.074Z,4.23
2018-06-24T05:21:32.228Z,4.30
2018-06-24T05:24:03.219Z,4.63
2018-06-24T05:26:33.028Z,5.67
2018-06-24T05:38:29.880Z,4.10
2018-06-24T05:40:59.218Z,4.00
2018-06-24T05:43:28.972Z,4.07
2018-06-24T05:58:00.453Z,3.90
2018-06-24T06:00:29.450Z,3.53
2018-06-24T06:15:09.393Z,3.60
2018-06-24T06:17:39.372Z,3.67
2018-06-24T06:20:11.168Z,3.50
2018-06-24T06:31:48.799Z,3.40
2018-06-24T06:34:17.849Z,3.30
2018-06-24T06:36:46.986Z,3.67
2018-06-24T06:48:25.408Z,3.50
2018-06-24T06:50:55.343Z,3.60
2018-06-24T06:53:24.472Z,3.77
2018-06-24T07:05:02.063Z,3.70
2018-06-24T07:07:31.113Z,3.67
2018-06-24T07:10:00.272Z,4.07
2018-06-24T07:24:33.111Z,3.83
2018-06-24T07:27:02.952Z,3.50
2018-06-24T07:41:44.029Z,4.23
2018-06-24T07:44:13.118Z,4.10
2018-06-24T07:46:49.156Z,3.80
2018-06-24T07:58:27.896Z,4.37
2018-06-24T08:16:10.268Z,3.50
2018-06-24T08:19:08.673Z,3.50
2018-06-24T08:33:50.111Z,4.37
2018-06-24T08:36:24.916Z,4.10
2018-06-24T08:38:55.307Z,3.80
2018-06-24T08:50:33.432Z,3.90
2018-06-24T08:53:02.417Z,3.83
2018-06-24T08:55:31.836Z,3.90
2018-06-24T09:10:12.809Z,4.00
2018-06-24T09:12:41.852Z,4.00
2018-06-24T09:15:11.489Z,4.13
2018-06-24T09:38:33.900Z,4.53
2018-06-24T09:41:03.231Z,3.83
2018-06-24T09:43:32.596Z,3.30
2018-06-24T10:07:21.450Z,3.77
2018-06-24T10:09:50.619Z,3.70
2018-06-24T10:12:19.911Z,3.77
2018-06-24T10:33:06.909Z,3.60
2018-06-24T10:35:36.124Z,3.70
2018-06-24T10:38:05.737Z,3.00
2018-06-24T10:52:46.920Z,3.53
2018-06-24T10:55:15.985Z,3.57
2018-06-24T10:57:45.264Z,3.47
2018-06-24T11:12:24.907Z,3.17
2018-06-24T11:14:53.782Z,3.97
2018-06-24T11:17:22.876Z,3.30
2018-06-24T11:23:13.923Z,3.10
2018-06-24T11:31:51.279Z,3.10
2018-06-24T11:34:20.375Z,2.70
2018-06-24T11:36:49.344Z,2.40
2018-06-24T11:39:18.944Z,2.30
2018-06-24T11:50:49.540Z,2.30
2018-06-24T11:53:18.486Z,2.33
2018-06-24T11:55:57.177Z,2.30
2018-06-24T12:07:34.496Z,2.97
2018-06-24T12:10:03.503Z,2.30
2018-06-24T12:12:32.736Z,2.17
2018-06-24T12:27:13.444Z,2.10
2018-06-24T12:29:42.852Z,2.00
2018-06-24T12:32:12.165Z,2.00
2018-06-24T12:46:55.511Z,1.70
2018-06-24T12:49:32.700Z,1.70
2018-06-24T13:07:52.738Z,1.93
2018-06-24T13:10:23.027Z,1.90
2018-06-24T13:12:51.821Z,1.80
2018-06-24T13:15:21.882Z,2.10
2018-06-24T14:06:40.359Z,1.53
2018-06-24T14:09:14.892Z,1.60
2018-06-24T14:11:47.547Z,1.53
2018-06-24T14:47:54.289Z,1.47
2018-06-24T14:50:28.097Z,1.40
2018-06-24T14:53:00.268Z,1.60
2018-06-24T15:10:46.275Z,1.70
2018-06-24T15:13:19.227Z,1.20
2018-06-24T15:15:54.611Z,1.10
2018-06-24T15:42:58.131Z,1.10
2018-06-24T15:45:30.066Z,1.10
2018-06-24T15:48:06.958Z,1.37
2018-06-24T16:02:50.958Z,1.20
2018-06-24T16:05:25.856Z,1.20
2018-06-24T16:08:01.159Z,0.97
2018-06-24T16:31:41.359Z,1.13
2018-06-24T16:34:10.745Z,1.40
2018-06-24T16:36:40.093Z,1.43
2018-06-24T16:39:21.336Z,1.40
2018-06-24T16:54:01.778Z,1.93
2018-06-24T16:56:47.761Z,0.90
2018-06-24T16:59:27.389Z,1.00
2018-06-24T17:07:43.666Z,1.07
2018-06-24T17:10:12.538Z,0.70
2018-06-24T17:12:41.631Z,0.80
2018-06-24T17:15:10.980Z,0.83
2018-06-24T18:00:33.015Z,0.90
2018-06-24T18:03:01.879Z,1.07
2018-06-24T18:05:32.891Z,1.00
2018-06-24T18:38:34.335Z,1.00
2018-06-24T18:41:06.426Z,0.80
2018-06-24T18:43:40.303Z,1.10
2018-06-24T19:16:58.563Z,1.60
2018-06-24T19:19:27.406Z,1.60
2018-06-24T19:21:56.420Z,1.83
2018-06-24T19:24:26.063Z,1.90
2018-06-24T19:54:20.902Z,2.30
2018-06-24T19:56:50.041Z,2.00
2018-06-24T19:59:19.055Z,2.30
2018-06-24T20:20:04.926Z,2.53
2018-06-24T20:22:33.816Z,3.70
2018-06-24T20:25:02.718Z,2.80
2018-06-24T20:27:31.988Z,2.83
2018-06-24T21:06:52.845Z,3.53
2018-06-24T21:09:23.017Z,3.67
2018-06-24T21:11:52.766Z,3.50
2018-06-24T21:14:23.812Z,3.27
2018-06-24T21:35:00.854Z,4.40
2018-06-24T21:46:36.511Z,3.60
2018-06-24T21:49:06.667Z,3.67
2018-06-24T21:51:35.608Z,4.17
2018-06-24T21:54:06.623Z,3.73
2018-06-24T21:56:43.271Z,3.63
2018-06-24T21:59:18.352Z,3.23
2018-06-24T22:01:50.292Z,3.30
2018-06-24T22:04:25.903Z,3.43
2018-06-24T22:06:59.195Z,3.00
2018-06-24T22:09:32.093Z,3.20
2018-06-24T22:12:00.919Z,2.93
2018-06-24T22:14:29.669Z,3.20
2018-06-24T22:16:58.670Z,2.93
2018-06-24T22:19:34.429Z,2.90
2018-06-24T22:22:06.569Z,2.80
2018-06-24T22:24:43.027Z,3.20
2018-06-24T22:27:26.113Z,3.10
2018-06-24T22:29:58.107Z,3.00
2018-06-24T22:32:31.704Z,2.70
2018-06-24T22:35:06.985Z,3.00
2018-06-24T22:37:41.815Z,4.00
2018-06-24T22:40:18.692Z,3.90
2018-06-24T22:42:54.815Z,3.47
2018-06-24T22:45:30.031Z,3.40
2018-06-24T22:48:03.020Z,3.90
2018-06-24T22:50:31.761Z,3.57
2018-06-24T22:53:00.595Z,3.40
2018-06-24T22:55:29.459Z,3.37
2018-06-24T22:58:00.627Z,3.73
2018-06-24T23:00:34.949Z,3.60
2018-06-24T23:03:07.613Z,3.03
2018-06-24T23:05:42.928Z,3.23
2018-06-24T23:08:19.717Z,3.20
2018-06-24T23:10:48.699Z,3.90
2018-06-24T23:13:17.535Z,3.70
2018-06-24T23:15:46.419Z,3.20
2018-06-24T23:18:15.485Z,3.07
2018-06-24T23:20:50.470Z,3.00
2018-06-24T23:23:24.111Z,3.30
2018-06-24T23:25:55.399Z,3.03
2018-06-24T23:28:27.548Z,3.00
2018-06-24T23:31:03.213Z,3.10
2018-06-24T23:33:32.006Z,3.00
2018-06-24T23:36:00.846Z,3.00
2018-06-24T23:38:29.823Z,3.10
2018-06-24T23:41:02.785Z,2.83
2018-06-24T23:43:34.999Z,3.40
2018-06-24T23:46:07.747Z,2.90
2018-06-24T23:48:38.345Z,2.80
2018-06-24T23:51:11.812Z,2.93
2018-06-24T23:53:43.041Z,3.00
2018-06-24T23:56:18.790Z,3.60
2018-06-24T23:58:54.800Z,3.10
